createdAt,value
2018-09-23T00:00:14.997Z,11.20
2018-09-23T00:03:14.945Z,11.03
2018-09-23T00:06:14.930Z,11.10
2018-09-23T00:09:14.881Z,11.02
2018-09-23T00:12:15.890Z,11.07
2018-09-23T00:15:14.827Z,11.10
2018-09-23T00:18:14.791Z,11.09
2018-09-23T00:21:14.758Z,11.21
2018-09-23T00:24:14.732Z,11.27
2018-09-23T00:27:14.682Z,11.17
2018-09-23T00:30:14.672Z,11.19
2018-09-23T00:33:14.599Z,11.21
2018-09-23T00:36:14.795Z,11.17
2018-09-23T00:39:14.555Z,11.20
2018-09-23T00:42:14.495Z,11.21
2018-09-23T00:45:14.491Z,11.17
2018-09-23T00:48:14.459Z,11.20
2018-09-23T00:51:14.394Z,11.11
2018-09-23T00:54:14.384Z,11.16
2018-09-23T00:57:14.332Z,11.19
2018-09-23T01:00:14.318Z,11.03
2018-09-23T01:03:14.250Z,11.06
2018-09-23T01:06:14.250Z,11.01
2018-09-23T01:09:14.236Z,11.07
2018-09-23T01:12:14.187Z,11.09
2018-09-23T01:15:14.116Z,11.10
2018-09-23T01:18:14.109Z,11.11
2018-09-23T01:21:14.059Z,11.10
2018-09-23T01:24:14.162Z,11.14
2018-09-23T01:27:13.993Z,11.17
2018-09-23T01:30:14.636Z,11.19
2018-09-23T01:33:13.901Z,11.10
2018-09-23T01:36:13.892Z,11.11
2018-09-23T01:39:13.856Z,11.11
2018-09-23T01:42:13.892Z,11.16
2018-09-23T01:45:13.768Z,11.16
2018-09-23T01:48:13.737Z,11.13
2018-09-23T01:51:13.750Z,11.09
2018-09-23T01:54:13.670Z,11.11
2018-09-23T01:57:13.669Z,11.11
2018-09-23T02:00:13.633Z,11.14
2018-09-23T02:03:13.573Z,11.14
2018-09-23T02:06:13.574Z,11.17
2018-09-23T02:09:13.501Z,11.01
2018-09-23T02:12:13.492Z,11.03
2018-09-23T02:15:13.424Z,11.24
2018-09-23T02:18:13.422Z,11.19
2018-09-23T02:21:13.436Z,11.06
2018-09-23T02:24:13.360Z,11.02
2018-09-23T02:27:13.288Z,11.03
2018-09-23T02:30:13.268Z,11.07
2018-09-23T02:33:13.227Z,11.07
2018-09-23T02:36:13.211Z,11.14
2018-09-23T02:39:13.156Z,11.09
2018-09-23T02:42:13.159Z,11.13
2018-09-23T02:45:13.078Z,11.13
2018-09-23T02:48:13.090Z,11.09
2018-09-23T02:51:13.043Z,11.03
2018-09-23T02:54:13.025Z,11.06
2018-09-23T02:57:12.991Z,11.06
2018-09-23T03:00:12.984Z,11.02
2018-09-23T03:03:12.882Z,11.03
2018-09-23T03:06:12.902Z,11.17
2018-09-23T03:09:12.821Z,11.13
2018-09-23T03:12:12.831Z,11.11
2018-09-23T03:15:12.743Z,11.17
2018-09-23T03:18:12.749Z,11.13
2018-09-23T03:21:13.632Z,11.14
2018-09-23T03:24:12.697Z,11.19
2018-09-23T03:27:12.596Z,11.25
2018-09-23T03:30:12.587Z,11.21
2018-09-23T03:33:12.556Z,11.17
2018-09-23T03:36:12.959Z,11.16
2018-09-23T03:39:12.478Z,11.24
2018-09-23T03:42:12.436Z,11.28
2018-09-23T03:45:12.688Z,11.17
2018-09-23T03:48:12.392Z,11.19
2018-09-23T03:51:12.329Z,11.29
2018-09-23T03:54:12.638Z,11.20
2018-09-23T03:57:12.287Z,11.27
2018-09-23T04:00:12.259Z,11.16
2018-09-23T04:03:12.193Z,11.20
2018-09-23T04:06:12.557Z,11.17
2018-09-23T04:09:12.163Z,11.29
2018-09-23T04:12:12.200Z,11.27
2018-09-23T04:15:12.048Z,11.32
2018-09-23T04:18:12.053Z,11.19
2018-09-23T04:21:12.987Z,11.21
2018-09-23T04:24:11.965Z,11.21
2018-09-23T04:27:11.912Z,11.31
2018-09-23T04:30:11.904Z,11.34
2018-09-23T04:33:11.851Z,11.39
2018-09-23T04:36:12.119Z,11.20
2018-09-23T04:39:11.774Z,11.31
2018-09-23T04:42:11.758Z,11.36
2018-09-23T04:45:11.721Z,11.34
2018-09-23T04:48:11.683Z,11.31
2018-09-23T04:51:11.655Z,11.41
2018-09-23T04:54:11.660Z,11.38
2018-09-23T04:57:11.590Z,11.32
2018-09-23T05:00:11.560Z,11.29
2018-09-23T05:03:11.540Z,11.35
2018-09-23T05:06:11.512Z,11.36
2018-09-23T05:09:11.450Z,11.39
2018-09-23T05:12:11.425Z,11.38
2018-09-23T05:15:11.462Z,11.35
2018-09-23T05:18:11.372Z,11.39
2018-09-23T05:21:11.311Z,11.36
2018-09-23T05:24:11.310Z,11.44
2018-09-23T05:27:11.231Z,11.39
2018-09-23T05:30:11.262Z,11.43
2018-09-23T05:33:11.174Z,11.43
2018-09-23T05:36:11.194Z,11.46
2018-09-23T05:39:11.150Z,11.41
2018-09-23T05:42:11.183Z,11.50
2018-09-23T05:45:11.116Z,11.47
2018-09-23T05:48:11.012Z,11.47
2018-09-23T05:51:10.972Z,11.39
2018-09-23T05:54:12.642Z,11.59
2018-09-23T05:57:10.937Z,11.47
2018-09-23T06:00:19.772Z,11.50
2018-09-23T06:03:10.868Z,11.56
2018-09-23T06:06:10.821Z,11.61
2018-09-23T06:09:10.754Z,11.64
2018-09-23T06:12:10.719Z,11.61
2018-09-23T06:15:10.683Z,11.67
2018-09-23T06:18:10.705Z,11.65
2018-09-23T06:21:10.631Z,11.75
2018-09-23T06:24:10.618Z,11.82
2018-09-23T06:27:10.551Z,11.90
2018-09-23T06:30:10.530Z,11.83
2018-09-23T06:33:10.470Z,11.82
2018-09-23T06:36:10.459Z,12.08
2018-09-23T06:39:10.432Z,12.02
2018-09-23T06:42:10.388Z,12.06
2018-09-23T06:45:10.535Z,12.12
2018-09-23T06:48:10.312Z,12.08
2018-09-23T06:51:10.353Z,12.11
2018-09-23T06:54:10.271Z,12.19
2018-09-23T06:57:10.211Z,12.30
2018-09-23T07:00:10.199Z,12.26
2018-09-23T07:03:10.142Z,12.31
2018-09-23T07:06:10.128Z,12.27
2018-09-23T07:09:10.068Z,12.31
2018-09-23T07:12:10.043Z,12.33
2018-09-23T07:15:09.989Z,12.38
2018-09-23T07:18:10.037Z,12.37
2018-09-23T07:21:09.977Z,12.27
2018-09-23T07:24:09.933Z,12.26
2018-09-23T07:27:09.959Z,12.29
2018-09-23T07:30:09.850Z,12.34
2018-09-23T07:33:09.791Z,12.59
2018-09-23T07:36:09.771Z,12.62
2018-09-23T07:39:09.722Z,12.79
2018-09-23T07:42:09.702Z,12.64
2018-09-23T07:45:09.747Z,12.77
2018-09-23T07:48:09.802Z,12.85
2018-09-23T07:51:09.642Z,12.79
2018-09-23T07:54:09.675Z,13.02
2018-09-23T07:57:09.550Z,13.30
2018-09-23T08:00:09.583Z,13.54
2018-09-23T08:03:09.533Z,13.58
2018-09-23T08:06:09.461Z,13.58
2018-09-23T08:09:09.404Z,13.43
2018-09-23T08:12:09.361Z,13.80
2018-09-23T08:15:09.313Z,13.94
2018-09-23T08:18:09.322Z,13.88
2018-09-23T08:21:09.297Z,13.67
2018-09-23T08:24:09.225Z,13.44
2018-09-23T08:27:09.168Z,13.44
2018-09-23T08:30:09.185Z,13.37
2018-09-23T08:33:09.144Z,13.30
2018-09-23T08:36:09.106Z,13.27
2018-09-23T08:39:09.064Z,13.14
2018-09-23T08:42:09.022Z,13.25
2018-09-23T08:45:09.249Z,13.17
2018-09-23T08:48:08.989Z,13.17
2018-09-23T08:51:08.924Z,13.22
2018-09-23T08:54:08.878Z,13.44
2018-09-23T08:57:08.827Z,13.56
2018-09-23T09:00:08.839Z,13.56
2018-09-23T09:03:08.759Z,13.81
2018-09-23T09:06:08.758Z,13.63
2018-09-23T09:09:08.722Z,13.89
2018-09-23T09:12:08.745Z,13.80
2018-09-23T09:15:08.647Z,13.99
2018-09-23T09:18:08.607Z,13.91
2018-09-23T09:21:08.560Z,13.87
2018-09-23T09:24:08.584Z,13.91
2018-09-23T09:27:08.563Z,13.61
2018-09-23T09:30:08.484Z,13.62
2018-09-23T09:33:08.475Z,13.80
2018-09-23T09:36:12.101Z,13.77
2018-09-23T09:39:08.358Z,13.61
2018-09-23T09:42:08.389Z,13.63
2018-09-23T09:45:08.298Z,13.69
2018-09-23T09:48:08.260Z,13.79
2018-09-23T09:51:08.231Z,13.83
2018-09-23T09:54:08.212Z,13.81
2018-09-23T09:57:08.150Z,13.77
2018-09-23T10:00:08.208Z,13.63
2018-09-23T10:03:08.117Z,13.56
2018-09-23T10:06:08.062Z,13.54
2018-09-23T10:09:08.052Z,13.61
2018-09-23T10:12:08.048Z,13.89
2018-09-23T10:15:07.995Z,13.59
2018-09-23T10:18:07.937Z,13.59
2018-09-23T10:21:07.878Z,13.70
2018-09-23T10:24:07.870Z,13.62
2018-09-23T10:27:07.835Z,13.65
2018-09-23T10:30:08.835Z,13.46
2018-09-23T10:33:07.757Z,13.22
2018-09-23T10:36:07.793Z,13.02
2018-09-23T10:39:07.686Z,13.02
2018-09-23T10:42:07.670Z,13.02
2018-09-23T10:45:07.604Z,12.92
2018-09-23T10:48:07.605Z,12.82
2018-09-23T10:51:07.558Z,12.69
2018-09-23T10:54:07.538Z,12.81
2018-09-23T10:57:07.473Z,12.89
2018-09-23T11:00:07.466Z,12.69
2018-09-23T11:03:07.412Z,12.85
2018-09-23T11:06:07.443Z,12.89
2018-09-23T11:09:07.343Z,13.00
2018-09-23T11:12:07.307Z,13.11
2018-09-23T11:15:07.321Z,13.17
2018-09-23T11:18:07.237Z,13.15
2018-09-23T11:21:07.196Z,13.30
2018-09-23T11:24:07.176Z,13.24
2018-09-23T11:27:07.124Z,13.11
2018-09-23T11:30:07.876Z,13.04
2018-09-23T11:33:07.071Z,12.84
2018-09-23T11:36:07.045Z,12.52
2018-09-23T11:39:07.002Z,12.39
2018-09-23T11:42:07.155Z,12.34
2018-09-23T11:45:06.932Z,12.21
2018-09-23T11:48:06.915Z,12.12
2018-09-23T11:51:06.852Z,12.11
2018-09-23T11:54:08.576Z,12.02
2018-09-23T11:57:06.784Z,12.21
2018-09-23T12:00:06.771Z,12.19
2018-09-23T12:03:06.738Z,12.27
2018-09-23T12:06:06.718Z,12.34
2018-09-23T12:09:06.683Z,12.30
2018-09-23T12:12:06.668Z,12.24
2018-09-23T12:15:06.590Z,12.19
2018-09-23T12:18:06.584Z,12.16
2018-09-23T12:21:06.518Z,11.89
2018-09-23T12:24:06.552Z,12.06
2018-09-23T12:27:06.459Z,11.97
2018-09-23T12:30:06.435Z,11.99
2018-09-23T12:33:06.432Z,12.05
2018-09-23T12:36:06.358Z,11.86
2018-09-23T12:39:06.303Z,11.67
2018-09-23T12:42:06.339Z,11.59
2018-09-23T12:45:06.246Z,11.80
2018-09-23T12:48:06.253Z,11.65
2018-09-23T12:51:06.175Z,11.64
2018-09-23T12:54:06.156Z,11.62
2018-09-23T12:57:06.107Z,11.64
2018-09-23T13:00:06.115Z,11.82
2018-09-23T13:03:06.049Z,11.80
2018-09-23T13:06:06.014Z,11.85
2018-09-23T13:09:06.049Z,11.74
2018-09-23T13:12:05.950Z,11.74
2018-09-23T13:15:05.897Z,11.80
2018-09-23T13:18:05.903Z,11.57
2018-09-23T13:21:05.826Z,11.53
2018-09-23T13:24:06.075Z,11.72
2018-09-23T13:27:05.789Z,11.64
2018-09-23T13:30:05.750Z,11.74
2018-09-23T13:33:05.719Z,11.97
2018-09-23T13:36:05.678Z,11.96
2018-09-23T13:39:05.628Z,11.67
2018-09-23T13:42:05.606Z,11.61
2018-09-23T13:45:05.565Z,11.52
2018-09-23T13:48:05.590Z,11.62
2018-09-23T13:51:05.511Z,11.67
2018-09-23T13:54:05.471Z,11.53
2018-09-23T13:57:05.467Z,11.39
2018-09-23T14:00:05.399Z,11.50
2018-09-23T14:03:05.388Z,11.56
2018-09-23T14:06:05.352Z,11.41
2018-09-23T14:09:05.279Z,11.24
2018-09-23T14:12:05.328Z,11.17
2018-09-23T14:15:05.230Z,11.27
2018-09-23T14:18:05.191Z,11.27
2018-09-23T14:21:05.166Z,11.34
2018-09-23T14:24:05.120Z,11.46
2018-09-23T14:27:05.084Z,11.28
2018-09-23T14:30:05.058Z,11.17
2018-09-23T14:33:05.016Z,10.98
2018-09-23T14:36:05.010Z,11.07
2018-09-23T14:39:04.946Z,11.09
2018-09-23T14:42:05.028Z,10.74
2018-09-23T14:45:04.886Z,10.71
2018-09-23T14:48:04.879Z,10.74
2018-09-23T14:51:04.819Z,10.92
2018-09-23T14:54:04.816Z,10.92
2018-09-23T14:57:04.760Z,11.03
2018-09-23T15:00:04.743Z,11.07
2018-09-23T15:03:06.505Z,10.92
2018-09-23T15:06:05.637Z,10.91
2018-09-23T15:09:04.628Z,11.03
2018-09-23T15:12:04.587Z,11.20
2018-09-23T15:15:05.541Z,11.25
2018-09-23T15:18:04.539Z,11.14
2018-09-23T15:21:04.476Z,11.13
2018-09-23T15:24:04.448Z,10.98
2018-09-23T15:27:04.428Z,10.91
2018-09-23T15:30:04.380Z,10.88
2018-09-23T15:33:04.363Z,10.95
2018-09-23T15:36:04.342Z,10.91
2018-09-23T15:39:04.296Z,10.71
2018-09-23T15:42:04.245Z,10.78
2018-09-23T15:45:04.198Z,10.83
2018-09-23T15:48:04.179Z,10.76
2018-09-23T15:51:04.137Z,10.70
2018-09-23T15:54:04.113Z,10.73
2018-09-23T15:57:04.067Z,10.76
2018-09-23T16:00:04.051Z,10.73
2018-09-23T16:03:04.015Z,10.58
2018-09-23T16:06:04.006Z,10.55
2018-09-23T16:09:03.910Z,10.59
2018-09-23T16:12:03.918Z,10.55
2018-09-23T16:15:03.873Z,10.58
2018-09-23T16:18:03.865Z,10.55
2018-09-23T16:21:03.825Z,10.34
2018-09-23T16:24:03.815Z,10.39
2018-09-23T16:27:03.722Z,10.32
2018-09-23T16:30:03.703Z,10.24
2018-09-23T16:33:04.678Z,10.14
2018-09-23T16:36:03.615Z,9.94
2018-09-23T16:39:03.571Z,9.97
2018-09-23T16:42:03.546Z,9.78
2018-09-23T16:45:03.545Z,9.66
2018-09-23T16:48:03.477Z,9.58
2018-09-23T16:51:03.456Z,9.53
2018-09-23T16:54:03.442Z,9.61
2018-09-23T16:57:04.405Z,9.67
2018-09-23T17:00:03.346Z,9.63
2018-09-23T17:03:03.319Z,9.66
2018-09-23T17:06:03.320Z,9.70
2018-09-23T17:09:03.244Z,9.60
2018-09-23T17:12:03.234Z,9.61
2018-09-23T17:15:03.163Z,9.56
2018-09-23T17:18:03.213Z,9.56
2018-09-23T17:21:03.108Z,9.58
2018-09-23T17:24:03.093Z,9.58
2018-09-23T17:27:03.351Z,9.56
2018-09-23T17:30:03.033Z,9.56
2018-09-23T17:33:02.950Z,9.60
2018-09-23T17:36:02.935Z,9.58
2018-09-23T17:39:02.890Z,9.52
2018-09-23T17:42:02.867Z,9.66
2018-09-23T17:45:02.840Z,9.61
2018-09-23T17:48:02.823Z,9.64
2018-09-23T17:51:02.756Z,9.57
2018-09-23T17:54:02.752Z,9.45
2018-09-23T17:57:02.689Z,9.45
2018-09-23T18:00:02.692Z,9.38
2018-09-23T18:03:02.623Z,9.34
2018-09-23T18:06:02.591Z,9.32
2018-09-23T18:09:02.571Z,9.28
2018-09-23T18:12:02.539Z,9.28
2018-09-23T18:15:04.041Z,9.31
2018-09-23T18:18:02.467Z,9.30
2018-09-23T18:21:03.430Z,9.25
2018-09-23T18:24:02.392Z,9.23
2018-09-23T18:27:02.548Z,9.25
2018-09-23T18:30:02.443Z,9.21
2018-09-23T18:33:02.276Z,9.24
2018-09-23T18:36:02.990Z,9.27
2018-09-23T18:39:02.197Z,9.28
2018-09-23T18:42:02.176Z,9.30
2018-09-23T18:45:02.133Z,9.25
2018-09-23T18:48:02.135Z,9.28
2018-09-23T18:51:02.065Z,9.28
2018-09-23T18:54:02.040Z,9.28
2018-09-23T18:57:02.411Z,9.27
2018-09-23T19:00:01.974Z,9.16
2018-09-23T19:03:01.929Z,9.27
2018-09-23T19:06:02.172Z,9.30
2018-09-23T19:09:01.858Z,9.28
2018-09-23T19:12:01.849Z,9.28
2018-09-23T19:15:01.806Z,9.20
2018-09-23T19:18:01.764Z,9.28
2018-09-23T19:21:01.832Z,9.15
2018-09-23T19:24:01.699Z,9.13
2018-09-23T19:27:01.716Z,9.10
2018-09-23T19:30:01.645Z,9.06
2018-09-23T19:33:01.583Z,9.05
2018-09-23T19:36:01.597Z,9.06
2018-09-23T19:39:01.513Z,9.12
2018-09-23T19:42:01.533Z,9.10
2018-09-23T19:45:01.452Z,9.13
2018-09-23T19:48:01.445Z,9.18
2018-09-23T19:51:01.379Z,9.21
2018-09-23T20:30:04.293Z,9.20
2018-09-23T21:11:08.206Z,9.28
2018-09-23T21:13:56.971Z,9.30
2018-09-23T21:40:00.624Z,9.27
2018-09-23T21:42:59.613Z,9.24
2018-09-23T21:47:04.896Z,9.25
2018-09-23T21:50:04.814Z,9.30
2018-09-23T21:53:04.793Z,9.27
2018-09-23T21:56:04.984Z,9.32
2018-09-23T21:59:04.734Z,9.30
2018-09-23T22:02:04.694Z,9.31
2018-09-23T22:05:04.661Z,9.27
2018-09-23T22:08:04.629Z,9.31
2018-09-23T22:11:04.597Z,9.30
2018-09-23T22:14:04.550Z,9.13
2018-09-23T22:17:04.539Z,9.04
2018-09-23T22:20:04.491Z,8.96
2018-09-23T22:23:06.034Z,8.94
2018-09-23T22:26:04.561Z,8.87
2018-09-23T22:29:04.395Z,8.81
2018-09-23T22:32:04.345Z,8.73
2018-09-23T22:35:04.339Z,8.72
2018-09-23T22:38:04.275Z,8.76
2018-09-23T22:41:04.255Z,8.83
2018-09-23T22:44:04.227Z,8.78
2018-09-23T22:47:04.182Z,8.75
2018-09-23T22:50:04.138Z,8.81
2018-09-23T22:53:05.542Z,8.69
2018-09-23T22:56:04.066Z,8.66
2018-09-23T22:59:04.083Z,8.73
2018-09-23T23:02:04.024Z,8.63
2018-09-23T23:05:03.979Z,8.62
2018-09-23T23:08:03.938Z,8.62
2018-09-23T23:11:03.905Z,8.69
2018-09-23T23:14:03.861Z,8.68
2018-09-23T23:17:05.540Z,8.54
2018-09-23T23:20:03.811Z,8.58
2018-09-23T23:23:03.777Z,8.57
2018-09-23T23:26:03.779Z,8.54
2018-09-23T23:29:03.725Z,8.50
2018-09-23T23:32:03.682Z,8.42
2018-09-23T23:35:03.659Z,8.50
2018-09-23T23:38:04.644Z,8.45
2018-09-23T23:41:03.615Z,8.32
2018-09-23T23:44:03.534Z,8.37
2018-09-23T23:47:03.975Z,8.18
2018-09-23T23:50:03.438Z,8.17
2018-09-23T23:53:03.427Z,8.21
2018-09-23T23:56:03.385Z,8.35
2018-09-23T23:59:03.363Z,8.21
